메인 페이지
METAR-TAF:

METAR-TAF

공항 :

토오쿄 양용비행장, 일본

위도: 35-38N, 경도: 139-51E, 고도: 5m

현재 날씨관측

예보는 2 시간 28분 전, 07:00시(UTC)에 발표되었습니다.
북북서3kt서남서풍과 북북동풍을 오가는
온도 5°C
습도 65%
기압 1021 hPa
시정 10km 이상
고도 2500ft 상공 구름 조금
고도 15000ft 상공 구름 많음
구름 많음

METAR: RJTI 160700Z 33003KT 250V020 9999 FEW025 BKN150 BKN/// 05/M01 Q1021

시각: 18:28 (09:28 UTC)


TAF: 누락

4,000개 이상의 공항 관측 자료 및 예보 (METAR 및 TAF 보고).

지도상에서 검색 가능한 기상관측소가 노란 점과 빨간 점으로 표시되어 있습니다.

기상관측소 명을 보려면 표시 위로 마우스를 이동하세요.

날씨 관측과 예보를 보려면 클릭하세요.

지도 변경 : 확대하려면 엑스 표시가 있는 녹색 버튼, 축소하려면 빼기 표시가 있는 녹색 버튼, 다음 페이지의 지도를 보려면 녹색 화살표를 클릭하세요.


METAR-TAF: